sensor_id;sensor_type;location;lat;lon;timestamp;pressure;altitude;pressure_sealevel;temperature;humidity
36354;BME280;22383;51.114;13.666;2023-02-18T00:01:56;67981.28;;;7.18;100.00
36354;BME280;22383;51.114;13.666;2023-02-18T00:04:24;67980.16;;;7.17;100.00
36354;BME280;22383;51.114;13.666;2023-02-18T00:06:55;67981.66;;;7.16;100.00
36354;BME280;22383;51.114;13.666;2023-02-18T00:09:22;67976.97;;;7.16;100.00
36354;BME280;22383;51.114;13.666;2023-02-18T00:11:50;67968.84;;;7.07;100.00
36354;BME280;22383;51.114;13.666;2023-02-18T00:14:19;67957.56;;;6.96;100.00
36354;BME280;22383;51.114;13.666;2023-02-18T00:16:46;67955.84;;;6.95;100.00
36354;BME280;22383;51.114;13.666;2023-02-18T00:19:16;67945.09;;;6.85;100.00
36354;BME280;22383;51.114;13.666;2023-02-18T00:21:45;67911.81;;;6.76;100.00
36354;BME280;22383;51.114;13.666;2023-02-18T00:24:14;67942.28;;;6.82;100.00
36354;BME280;22383;51.114;13.666;2023-02-18T00:26:51;67943.41;;;6.84;100.00
36354;BME280;22383;51.114;13.666;2023-02-18T00:29:21;67956.00;;;6.90;100.00
36354;BME280;22383;51.114;13.666;2023-02-18T00:31:51;67954.16;;;6.93;100.00
36354;BME280;22383;51.114;13.666;2023-02-18T00:34:19;67954.72;;;6.94;100.00
36354;BME280;22383;51.114;13.666;2023-02-18T00:36:49;67953.38;;;6.90;100.00
36354;BME280;22383;51.114;13.666;2023-02-18T00:39:17;67943.06;;;6.86;100.00
36354;BME280;22383;51.114;13.666;2023-02-18T00:41:44;67938.34;;;6.79;100.00
36354;BME280;22383;51.114;13.666;2023-02-18T00:44:11;67938.13;;;6.76;100.00
36354;BME280;22383;51.114;13.666;2023-02-18T00:46:39;67933.78;;;6.75;100.00
36354;BME280;22383;51.114;13.666;2023-02-18T00:49:07;67934.78;;;6.80;100.00
36354;BME280;22383;51.114;13.666;2023-02-18T00:51:38;67940.19;;;6.76;100.00
36354;BME280;22383;51.114;13.666;2023-02-18T00:54:06;67937.19;;;6.78;100.00
36354;BME280;22383;51.114;13.666;2023-02-18T00:56:34;67941.53;;;6.79;100.00
36354;BME280;22383;51.114;13.666;2023-02-18T00:59:01;67925.31;;;6.67;100.00
36354;BME280;22383;51.114;13.666;2023-02-18T01:01:31;67921.94;;;6.64;100.00
36354;BME280;22383;51.114;13.666;2023-02-18T01:03:59;67911.19;;;6.54;100.00
36354;BME280;22383;51.114;13.666;2023-02-18T01:06:26;67907.25;;;6.51;100.00
36354;BME280;22383;51.114;13.666;2023-02-18T01:08:54;67922.84;;;6.62;100.00
36354;BME280;22383;51.114;13.666;2023-02-18T01:11:21;67921.75;;;6.61;100.00
36354;BME280;22383;51.114;13.666;2023-02-18T01:13:51;67921.38;;;6.63;100.00
36354;BME280;22383;51.114;13.666;2023-02-18T01:16:19;67917.97;;;6.60;100.00
36354;BME280;22383;51.114;13.666;2023-02-18T01:18:47;67914.03;;;6.57;100.00
36354;BME280;22383;51.114;13.666;2023-02-18T01:21:14;67909.69;;;6.55;100.00
36354;BME280;22383;51.114;13.666;2023-02-18T01:23:42;67908.94;;;6.52;100.00
36354;BME280;22383;51.114;13.666;2023-02-18T01:26:10;67909.28;;;6.50;100.00
36354;BME280;22383;51.114;13.666;2023-02-18T01:28:39;67905.56;;;6.49;100.00
36354;BME280;22383;51.114;13.666;2023-02-18T01:31:08;67895.56;;;6.42;100.00
36354;BME280;22383;51.114;13.666;2023-02-18T01:33:36;67888.03;;;6.33;100.00
36354;BME280;22383;51.114;13.666;2023-02-18T01:36:05;67886.34;;;6.32;100.00
36354;BME280;22383;51.114;13.666;2023-02-18T01:38:33;67885.38;;;6.26;100.00
36354;BME280;22383;51.114;13.666;2023-02-18T01:41:01;67883.09;;;6.24;100.00
36354;BME280;22383;51.114;13.666;2023-02-18T01:43:29;67879.72;;;6.21;100.00
36354;BME280;22383;51.114;13.666;2023-02-18T01:48:46;67863.91;;;6.06;100.00
36354;BME280;22383;51.114;13.666;2023-02-18T01:51:19;67858.09;;;6.06;100.00
36354;BME280;22383;51.114;13.666;2023-02-18T01:54:04;67860.72;;;6.06;100.00
36354;BME280;22383;51.114;13.666;2023-02-18T01:56:53;67858.28;;;6.01;100.00
36354;BME280;22383;51.114;13.666;2023-02-18T01:59:30;67853.94;;;6.00;100.00
36354;BME280;22383;51.114;13.666;2023-02-18T02:01:58;67854.69;;;6.03;100.00
36354;BME280;22383;51.114;13.666;2023-02-18T02:04:29;67854.50;;;6.00;100.00
36354;BME280;22383;51.114;13.666;2023-02-18T02:06:56;67855.66;;;6.01;100.00
36354;BME280;22383;51.114;13.666;2023-02-18T02:09:25;67861.09;;;6.04;100.00
36354;BME280;22383;51.114;13.666;2023-02-18T02:15:21;67858.09;;;6.06;100.00
36354;BME280;22383;51.114;13.666;2023-02-18T02:18:01;67873.16;;;6.17;100.00
36354;BME280;22383;51.114;13.666;2023-02-18T02:20:47;67860.56;;;6.11;100.00
36354;BME280;22383;51.114;13.666;2023-02-18T02:27:03;67869.94;;;6.17;100.00
36354;BME280;22383;51.114;13.666;2023-02-18T02:35:22;67874.66;;;6.23;100.00
36354;BME280;22383;51.114;13.666;2023-02-18T02:46:51;67895.19;;;6.37;100.00
36354;BME280;22383;51.114;13.666;2023-02-18T02:49:52;67896.88;;;6.39;100.00
36354;BME280;22383;51.114;13.666;2023-02-18T02:52:57;67902.91;;;6.42;100.00
36354;BME280;22383;51.114;13.666;2023-02-18T02:55:23;67898.97;;;6.46;100.00
36354;BME280;22383;51.114;13.666;2023-02-18T02:57:54;67900.06;;;6.39;100.00
36354;BME280;22383;51.114;13.666;2023-02-18T03:06:21;67911.38;;;6.50;100.00
36354;BME280;22383;51.114;13.666;2023-02-18T03:08:57;67917.59;;;6.55;100.00
36354;BME280;22383;51.114;13.666;2023-02-18T03:11:34;67903.84;;;6.48;100.00
36354;BME280;22383;51.114;13.666;2023-02-18T03:14:19;67896.34;;;6.46;100.00
36354;BME280;22383;51.114;13.666;2023-02-18T03:16:59;67899.91;;;6.44;100.00
36354;BME280;22383;51.114;13.666;2023-02-18T03:19:36;67901.59;;;6.46;100.00
36354;BME280;22383;51.114;13.666;2023-02-18T03:22:14;67912.69;;;6.53;100.00
36354;BME280;22383;51.114;13.666;2023-02-18T03:24:45;67904.22;;;6.46;100.00
36354;BME280;22383;51.114;13.666;2023-02-18T03:27:22;67898.75;;;6.43;100.00
36354;BME280;22383;51.114;13.666;2023-02-18T03:30:17;67894.25;;;6.39;100.00
36354;BME280;22383;51.114;13.666;2023-02-18T03:32:50;67902.53;;;6.44;100.00
36354;BME280;22383;51.114;13.666;2023-02-18T03:35:23;67894.81;;;6.39;100.00
36354;BME280;22383;51.114;13.666;2023-02-18T03:38:06;67890.66;;;6.33;100.00
36354;BME280;22383;51.114;13.666;2023-02-18T03:40:35;67884.66;;;6.30;100.00
36354;BME280;22383;51.114;13.666;2023-02-18T03:43:02;67885.00;;;6.28;100.00
36354;BME280;22383;51.114;13.666;2023-02-18T03:45:31;67883.31;;;6.27;100.00
36354;BME280;22383;51.114;13.666;2023-02-18T03:47:58;67883.09;;;6.24;100.00
36354;BME280;22383;51.114;13.666;2023-02-18T03:50:39;67881.25;;;6.27;100.00
36354;BME280;22383;51.114;13.666;2023-02-18T03:53:06;67877.28;;;6.23;100.00
36354;BME280;22383;51.114;13.666;2023-02-18T03:55:33;67882.94;;;6.29;100.00
36354;BME280;22383;51.114;13.666;2023-02-18T03:58:01;67881.25;;;6.27;100.00
36354;BME280;22383;51.114;13.666;2023-02-18T04:00:28;67876.53;;;6.20;100.00
36354;BME280;22383;51.114;13.666;2023-02-18T04:02:55;67883.50;;;6.29;100.00
36354;BME280;22383;51.114;13.666;2023-02-18T04:05:23;67883.50;;;6.29;100.00
36354;BME280;22383;51.114;13.666;2023-02-18T04:07:50;67872.22;;;6.19;100.00
36354;BME280;22383;51.114;13.666;2023-02-18T04:10:18;67882.56;;;6.23;100.00
36354;BME280;22383;51.114;13.666;2023-02-18T04:12:45;67883.31;;;6.27;100.00
36354;BME280;22383;51.114;13.666;2023-02-18T04:15:12;67879.94;;;6.23;100.00
36354;BME280;22383;51.114;13.666;2023-02-18T04:17:41;67885.56;;;6.29;100.00
36354;BME280;22383;51.114;13.666;2023-02-18T04:20:09;67882.19;;;6.25;100.00
36354;BME280;22383;51.114;13.666;2023-02-18T04:22:36;67876.75;;;6.23;100.00
36354;BME280;22383;51.114;13.666;2023-02-18T04:25:04;67882.75;;;6.26;100.00
36354;BME280;22383;51.114;13.666;2023-02-18T04:27:31;67888.97;;;6.32;100.00
36354;BME280;22383;51.114;13.666;2023-02-18T04:29:59;67888.03;;;6.33;100.00
36354;BME280;22383;51.114;13.666;2023-02-18T04:32:26;67884.84;;;6.33;100.00
36354;BME280;22383;51.114;13.666;2023-02-18T04:34:54;67891.78;;;6.34;100.00
36354;BME280;22383;51.114;13.666;2023-02-18T04:37:21;67885.56;;;6.29;100.00
36354;BME280;22383;51.114;13.666;2023-02-18T04:39:48;67884.66;;;6.30;100.00
36354;BME280;22383;51.114;13.666;2023-02-18T04:42:16;67882.75;;;6.26;100.00
36354;BME280;22383;51.114;13.666;2023-02-18T04:44:43;67879.00;;;6.25;100.00
36354;BME280;22383;51.114;13.666;2023-02-18T04:47:13;67878.81;;;6.22;100.00
36354;BME280;22383;51.114;13.666;2023-02-18T04:49:41;67877.28;;;6.23;100.00
36354;BME280;22383;51.114;13.666;2023-02-18T04:52:08;67882.75;;;6.26;100.00
36354;BME280;22383;51.114;13.666;2023-02-18T04:54:35;67884.47;;;6.28;100.00
36354;BME280;22383;51.114;13.666;2023-02-18T04:57:03;67883.88;;;6.27;100.00
36354;BME280;22383;51.114;13.666;2023-02-18T04:59:30;67875.03;;;6.21;100.00
36354;BME280;22383;51.114;13.666;2023-02-18T05:01:57;67885.56;;;6.29;100.00
36354;BME280;22383;51.114;13.666;2023-02-18T05:04:25;67879.56;;;6.25;100.00
36354;BME280;22383;51.114;13.666;2023-02-18T05:06:52;67886.50;;;6.27;100.00
36354;BME280;22383;51.114;13.666;2023-02-18T05:09:20;67887.84;;;6.31;100.00
36354;BME280;22383;51.114;13.666;2023-02-18T05:11:47;67891.78;;;6.34;100.00
36354;BME280;22383;51.114;13.666;2023-02-18T05:14:15;67886.34;;;6.32;100.00
36354;BME280;22383;51.114;13.666;2023-02-18T05:16:42;67888.59;;;6.34;100.00
36354;BME280;22383;51.114;13.666;2023-02-18T05:19:13;67889.75;;;6.35;100.00
36354;BME280;22383;51.114;13.666;2023-02-18T05:21:41;67887.84;;;6.31;100.00
36354;BME280;22383;51.114;13.666;2023-02-18T05:24:09;67884.47;;;6.28;100.00
36354;BME280;22383;51.114;13.666;2023-02-18T05:26:36;67882.94;;;6.29;100.00
36354;BME280;22383;51.114;13.666;2023-02-18T05:29:04;67887.47;;;6.33;100.00
36354;BME280;22383;51.114;13.666;2023-02-18T05:31:32;67884.84;;;6.33;100.00
36354;BME280;22383;51.114;13.666;2023-02-18T05:34:00;67885.00;;;6.28;100.00
36354;BME280;22383;51.114;13.666;2023-02-18T05:36:27;67882.19;;;6.25;100.00
36354;BME280;22383;51.114;13.666;2023-02-18T05:38:55;67879.00;;;6.25;100.00
36354;BME280;22383;51.114;13.666;2023-02-18T05:41:22;67876.75;;;6.23;100.00
36354;BME280;22383;51.114;13.666;2023-02-18T05:43:50;67883.69;;;6.24;100.00
36354;BME280;22383;51.114;13.666;2023-02-18T05:46:36;67879.72;;;6.21;100.00
36354;BME280;22383;51.114;13.666;2023-02-18T05:49:03;67876.53;;;6.20;100.00
36354;BME280;22383;51.114;13.666;2023-02-18T05:51:31;67874.28;;;6.18;100.00
36354;BME280;22383;51.114;13.666;2023-02-18T05:53:58;67876.34;;;6.18;100.00
36354;BME280;22383;51.114;13.666;2023-02-18T05:56:26;67871.47;;;6.16;100.00
36354;BME280;22383;51.114;13.666;2023-02-18T05:58:53;67867.88;;;6.10;100.00
36354;BME280;22383;51.114;13.666;2023-02-18T06:01:20;67857.16;;;6.08;100.00
36354;BME280;22383;51.114;13.666;2023-02-18T06:03:48;67861.28;;;6.06;100.00
36354;BME280;22383;51.114;13.666;2023-02-18T06:06:15;67851.88;;;6.00;100.00
36354;BME280;22383;51.114;13.666;2023-02-18T06:08:43;67847.19;;;6.01;100.00
36354;BME280;22383;51.114;13.666;2023-02-18T06:11:10;67851.13;;;5.97;100.00
36354;BME280;22383;51.114;13.666;2023-02-18T06:13:37;67843.75;;;5.91;100.00
36354;BME280;22383;51.114;13.666;2023-02-18T06:16:05;67834.53;;;5.87;100.00
36354;BME280;22383;51.114;13.666;2023-02-18T06:18:32;67839.78;;;5.87;100.00
36354;BME280;22383;51.114;13.666;2023-02-18T06:21:00;67834.50;;;5.80;100.00
36354;BME280;22383;51.114;13.666;2023-02-18T06:23:27;67833.22;;;5.83;100.00
36354;BME280;22383;51.114;13.666;2023-02-18T06:25:55;67830.97;;;5.81;100.00
36354;BME280;22383;51.114;13.666;2023-02-18T06:28:22;67831.88;;;5.80;100.00
36354;BME280;22383;51.114;13.666;2023-02-18T06:30:50;67831.69;;;5.77;100.00
36354;BME280;22383;51.114;13.666;2023-02-18T06:33:17;67830.56;;;5.76;100.00
36354;BME280;22383;51.114;13.666;2023-02-18T06:36:01;67830.41;;;5.81;100.00
36354;BME280;22383;51.114;13.666;2023-02-18T06:38:28;67831.50;;;5.82;100.00
36354;BME280;22383;51.114;13.666;2023-02-18T06:40:56;67833.78;;;5.84;100.00
36354;BME280;22383;51.114;13.666;2023-02-18T06:43:23;67832.84;;;5.85;100.00
36354;BME280;22383;51.114;13.666;2023-02-18T06:45:51;67833.59;;;5.81;100.00
36354;BME280;22383;51.114;13.666;2023-02-18T06:48:18;67831.88;;;5.80;100.00
36354;BME280;22383;51.114;13.666;2023-02-18T06:50:46;67828.16;;;5.79;100.00
36354;BME280;22383;51.114;13.666;2023-02-18T06:53:14;67829.63;;;5.78;100.00
36354;BME280;22383;51.114;13.666;2023-02-18T06:55:45;67827.38;;;5.76;100.00
36354;BME280;22383;51.114;13.666;2023-02-18T06:58:13;67835.09;;;5.80;100.00
36354;BME280;22383;51.114;13.666;2023-02-18T07:00:41;67836.75;;;5.82;100.00
36354;BME280;22383;51.114;13.666;2023-02-18T07:03:11;67830.41;;;5.81;100.00
36354;BME280;22383;51.114;13.666;2023-02-18T07:05:40;67834.34;;;5.84;100.00
36354;BME280;22383;51.114;13.666;2023-02-18T07:08:08;67838.69;;;5.86;100.00
36354;BME280;22383;51.114;13.666;2023-02-18T07:10:35;67837.16;;;5.87;100.00
36354;BME280;22383;51.114;13.666;2023-02-18T07:13:03;67836.59;;;5.86;100.00
36354;BME280;22383;51.114;13.666;2023-02-18T07:15:31;67836.59;;;5.86;100.00
36354;BME280;22383;51.114;13.666;2023-02-18T07:17:58;67840.94;;;5.88;100.00
36354;BME280;22383;51.114;13.666;2023-02-18T07:20:27;67838.09;;;5.85;100.00
36354;BME280;22383;51.114;13.666;2023-02-18T07:22:54;67838.31;;;5.88;100.00
36354;BME280;22383;51.114;13.666;2023-02-18T07:25:22;67839.78;;;5.87;100.00
36354;BME280;22383;51.114;13.666;2023-02-18T07:27:50;67837.75;;;5.87;100.00
36354;BME280;22383;51.114;13.666;2023-02-18T07:30:19;67838.31;;;5.88;100.00
36354;BME280;22383;51.114;13.666;2023-02-18T07:32:47;67842.06;;;5.89;100.00
36354;BME280;22383;51.114;13.666;2023-02-18T07:35:14;67838.31;;;5.88;100.00
36354;BME280;22383;51.114;13.666;2023-02-18T07:37:49;67844.69;;;5.89;100.00
36354;BME280;22383;51.114;13.666;2023-02-18T07:40:19;67846.38;;;5.91;100.00
36354;BME280;22383;51.114;13.666;2023-02-18T07:42:48;67842.63;;;5.90;100.00
36354;BME280;22383;51.114;13.666;2023-02-18T07:45:16;67843.41;;;5.93;100.00
36354;BME280;22383;51.114;13.666;2023-02-18T07:47:43;67842.81;;;5.92;100.00
36354;BME280;22383;51.114;13.666;2023-02-18T07:50:11;67844.88;;;5.92;100.00
36354;BME280;22383;51.114;13.666;2023-02-18T07:52:39;67842.81;;;5.92;100.00
36354;BME280;22383;51.114;13.666;2023-02-18T07:55:07;67841.13;;;5.91;100.00
36354;BME280;22383;51.114;13.666;2023-02-18T07:57:35;67842.63;;;5.90;100.00
36354;BME280;22383;51.114;13.666;2023-02-18T08:00:22;67842.44;;;5.94;100.00
36354;BME280;22383;51.114;13.666;2023-02-18T08:02:50;67847.13;;;5.94;100.00
36354;BME280;22383;51.114;13.666;2023-02-18T08:05:18;67847.38;;;5.96;100.00
36354;BME280;22383;51.114;13.666;2023-02-18T08:07:45;67847.38;;;5.96;100.00
36354;BME280;22383;51.114;13.666;2023-02-18T08:10:12;67844.75;;;5.96;100.00
36354;BME280;22383;51.114;13.666;2023-02-18T08:12:40;67850.56;;;5.97;100.00
36354;BME280;22383;51.114;13.666;2023-02-18T08:15:08;67851.88;;;6.00;100.00
36354;BME280;22383;51.114;13.666;2023-02-18T08:17:36;67856.97;;;6.05;100.00
36354;BME280;22383;51.114;13.666;2023-02-18T08:20:06;67862.97;;;6.08;100.00
36354;BME280;22383;51.114;13.666;2023-02-18T08:22:34;67861.47;;;6.09;100.00
36354;BME280;22383;51.114;13.666;2023-02-18T08:25:01;67856.59;;;6.07;100.00
36354;BME280;22383;51.114;13.666;2023-02-18T08:27:29;67860.94;;;6.09;100.00
36354;BME280;22383;51.114;13.666;2023-02-18T08:29:58;67870.53;;;6.17;100.00
36354;BME280;22383;51.114;13.666;2023-02-18T08:32:26;67875.78;;;6.17;100.00
36354;BME280;22383;51.114;13.666;2023-02-18T08:34:55;67866.75;;;6.16;100.00
36354;BME280;22383;51.114;13.666;2023-02-18T08:37:22;67874.09;;;6.16;100.00
36354;BME280;22383;51.114;13.666;2023-02-18T08:39:50;67872.22;;;6.19;100.00
36354;BME280;22383;51.114;13.666;2023-02-18T08:42:17;67872.22;;;6.19;100.00
36354;BME280;22383;51.114;13.666;2023-02-18T08:44:45;67872.78;;;6.19;100.00
36354;BME280;22383;51.114;13.666;2023-02-18T08:47:12;67882.38;;;6.28;100.00
36354;BME280;22383;51.114;13.666;2023-02-18T08:50:00;67890.84;;;6.36;100.00
36354;BME280;22383;51.114;13.666;2023-02-18T08:52:27;67889.91;;;6.30;100.00
36354;BME280;22383;51.114;13.666;2023-02-18T08:54:55;67884.84;;;6.33;100.00
36354;BME280;22383;51.114;13.666;2023-02-18T08:57:22;67892.38;;;6.35;100.00
36354;BME280;22383;51.114;13.666;2023-02-18T08:59:49;67898.00;;;6.40;100.00
36354;BME280;22383;51.114;13.666;2023-02-18T09:02:17;67896.72;;;6.43;100.00
36354;BME280;22383;51.114;13.666;2023-02-18T09:04:44;67893.09;;;6.38;100.00
36354;BME280;22383;51.114;13.666;2023-02-18T09:07:12;67896.31;;;6.38;100.00
36354;BME280;22383;51.114;13.666;2023-02-18T09:09:39;67904.41;;;6.48;100.00
36354;BME280;22383;51.114;13.666;2023-02-18T09:12:08;67906.13;;;6.50;100.00
36354;BME280;22383;51.114;13.666;2023-02-18T09:15:01;67902.72;;;6.47;100.00
36354;BME280;22383;51.114;13.666;2023-02-18T09:17:30;67881.91;;;6.49;100.00
36354;BME280;22383;51.114;13.666;2023-02-18T09:19:57;67901.22;;;6.48;100.00
36354;BME280;22383;51.114;13.666;2023-02-18T09:22:24;67901.59;;;6.46;100.00
36354;BME280;22383;51.114;13.666;2023-02-18T09:24:52;67909.13;;;6.55;100.00
36354;BME280;22383;51.114;13.666;2023-02-18T09:27:20;67911.38;;;6.57;100.00
36354;BME280;22383;51.114;13.666;2023-02-18T09:29:48;67910.28;;;6.56;100.00
36354;BME280;22383;51.114;13.666;2023-02-18T09:32:16;67929.09;;;6.68;100.00
36354;BME280;22383;51.114;13.666;2023-02-18T09:35:00;67927.41;;;6.67;100.00
36354;BME280;22383;51.114;13.666;2023-02-18T09:37:28;67929.09;;;6.68;100.00
36354;BME280;22383;51.114;13.666;2023-02-18T09:39:56;67944.34;;;6.82;100.00
36354;BME280;22383;51.114;13.666;2023-02-18T09:42:30;67962.22;;;6.96;100.00
36354;BME280;22383;51.114;13.666;2023-02-18T09:45:05;67977.34;;;7.14;100.00
36354;BME280;22383;51.114;13.666;2023-02-18T09:47:37;67992.78;;;7.31;100.00
36354;BME280;22383;51.114;13.666;2023-02-18T09:50:33;68008.06;;;7.45;100.00
36354;BME280;22383;51.114;13.666;2023-02-18T09:53:02;68023.13;;;7.56;100.00
36354;BME280;22383;51.114;13.666;2023-02-18T09:55:34;68031.06;;;7.63;100.00
36354;BME280;22383;51.114;13.666;2023-02-18T09:58:10;68050.28;;;7.81;100.00
36354;BME280;22383;51.114;13.666;2023-02-18T10:00:43;68057.06;;;7.87;100.00
36354;BME280;22383;51.114;13.666;2023-02-18T10:03:19;68066.13;;;7.95;100.00
36354;BME280;22383;51.114;13.666;2023-02-18T10:06:06;68094.41;;;8.21;100.00
36354;BME280;22383;51.114;13.666;2023-02-18T10:08:43;68109.69;;;8.35;100.00
36354;BME280;22383;51.114;13.666;2023-02-18T10:11:23;68111.59;;;8.39;100.00
36354;BME280;22383;51.114;13.666;2023-02-18T10:13:56;68109.88;;;8.37;100.00
36354;BME280;22383;51.114;13.666;2023-02-18T10:16:23;68111.38;;;8.36;100.00
36354;BME280;22383;51.114;13.666;2023-02-18T10:19:00;68107.06;;;8.35;100.00
36354;BME280;22383;51.114;13.666;2023-02-18T10:21:32;68114.22;;;8.39;100.00
36354;BME280;22383;51.114;13.666;2023-02-18T10:27:17;68121.97;;;8.43;100.00
36354;BME280;22383;51.114;13.666;2023-02-18T10:29:47;68124.97;;;8.48;100.00
36354;BME280;22383;51.114;13.666;2023-02-18T10:32:32;68130.84;;;8.49;100.00
36354;BME280;22383;51.114;13.666;2023-02-18T10:35:14;68134.59;;;8.57;100.00
36354;BME280;22383;51.114;13.666;2023-02-18T10:40:30;68129.91;;;8.58;100.00
36354;BME280;22383;51.114;13.666;2023-02-18T10:51:55;68126.50;;;8.47;100.00
36354;BME280;22383;51.114;13.666;2023-02-18T10:54:25;68122.72;;;8.46;100.00
36354;BME280;22383;51.114;13.666;2023-02-18T10:56:58;68118.97;;;8.45;100.00
36354;BME280;22383;51.114;13.666;2023-02-18T10:59:32;68127.06;;;8.48;100.00
36354;BME280;22383;51.114;13.666;2023-02-18T11:02:13;68125.38;;;8.54;100.00
36354;BME280;22383;51.114;13.666;2023-02-18T11:04:44;68138.00;;;8.60;100.00
36354;BME280;22383;51.114;13.666;2023-02-18T11:07:15;68146.88;;;8.66;100.00
36354;BME280;22383;51.114;13.666;2023-02-18T11:12:21;68154.25;;;8.80;100.00
36354;BME280;22383;51.114;13.666;2023-02-18T11:17:43;68174.81;;;8.94;100.00
36354;BME280;22383;51.114;13.666;2023-02-18T11:20:22;68185.00;;;9.03;100.00
36354;BME280;22383;51.114;13.666;2023-02-18T11:22:56;68191.78;;;9.09;100.00
36354;BME280;22383;51.114;13.666;2023-02-18T11:25:26;68206.91;;;9.20;100.00
36354;BME280;22383;51.114;13.666;2023-02-18T11:28:04;68213.31;;;9.28;100.00
36354;BME280;22383;51.114;13.666;2023-02-18T11:30:38;68222.38;;;9.37;100.00
36354;BME280;22383;51.114;13.666;2023-02-18T11:33:30;68225.19;;;9.39;100.00
36354;BME280;22383;51.114;13.666;2023-02-18T11:35:57;68234.25;;;9.48;100.00
36354;BME280;22383;51.114;13.666;2023-02-18T11:38:34;68245.03;;;9.57;100.00
36354;BME280;22383;51.114;13.666;2023-02-18T11:41:06;68254.09;;;9.65;100.00
36354;BME280;22383;51.114;13.666;2023-02-18T11:43:40;68252.59;;;9.67;100.00
36354;BME280;22383;51.114;13.666;2023-02-18T11:46:15;68250.13;;;9.62;100.00
36354;BME280;22383;51.114;13.666;2023-02-18T11:48:43;68254.66;;;9.66;100.00
36354;BME280;22383;51.114;13.666;2023-02-18T11:51:27;68257.13;;;9.71;100.00
36354;BME280;22383;51.114;13.666;2023-02-18T11:54:00;68258.06;;;9.69;100.00
36354;BME280;22383;51.114;13.666;2023-02-18T11:56:32;68257.69;;;9.71;100.00
36354;BME280;22383;51.114;13.666;2023-02-18T11:59:02;68259.19;;;9.70;100.00
36354;BME280;22383;51.114;13.666;2023-02-18T12:01:46;68257.50;;;9.69;100.00
36354;BME280;22383;51.114;13.666;2023-02-18T12:04:35;68259.75;;;9.71;100.00
36354;BME280;22383;51.114;13.666;2023-02-18T12:07:30;68255.03;;;9.64;100.00
36354;BME280;22383;51.114;13.666;2023-02-18T12:10:11;68240.50;;;9.53;100.00
36354;BME280;22383;51.114;13.666;2023-02-18T12:12:47;68208.78;;;9.46;100.00
36354;BME280;22383;51.114;13.666;2023-02-18T12:15:20;68228.03;;;9.42;100.00
36354;BME280;22383;51.114;13.666;2023-02-18T12:18:20;68215.56;;;9.31;100.00
36354;BME280;22383;51.114;13.666;2023-02-18T12:20:55;68211.22;;;9.29;100.00
36354;BME280;22383;51.114;13.666;2023-02-18T12:26:29;68191.78;;;9.09;100.00
36354;BME280;22383;51.114;13.666;2023-02-18T12:31:56;68181.78;;;9.02;100.00
36354;BME280;22383;51.114;13.666;2023-02-18T13:10:39;68123.47;;;8.49;100.00
36354;BME280;22383;51.114;13.666;2023-02-18T13:15:42;68131.00;;;8.51;100.00
36354;BME280;22383;51.114;13.666;2023-02-18T13:18:37;68133.31;;;8.61;100.00
36354;BME280;22383;51.114;13.666;2023-02-18T13:21:22;68152.53;;;8.71;100.00
36354;BME280;22383;51.114;13.666;2023-02-18T13:24:00;68148.78;;;8.70;100.00
36354;BME280;22383;51.114;13.666;2023-02-18T13:26:31;68149.31;;;8.70;100.00
36354;BME280;22383;51.114;13.666;2023-02-18T13:29:23;68155.56;;;8.76;100.00
36354;BME280;22383;51.114;13.666;2023-02-18T13:34:58;68146.13;;;8.63;100.00
36354;BME280;22383;51.114;13.666;2023-02-18T13:40:20;68113.66;;;8.38;100.00
36354;BME280;22383;51.114;13.666;2023-02-18T13:42:51;68100.63;;;8.26;100.00
36354;BME280;22383;51.114;13.666;2023-02-18T13:45:25;68094.03;;;8.23;100.00
36354;BME280;22383;51.114;13.666;2023-02-18T13:47:54;68092.13;;;8.19;100.00
36354;BME280;22383;51.114;13.666;2023-02-18T13:52:52;68089.88;;;8.17;100.00
36354;BME280;22383;51.114;13.666;2023-02-18T13:55:36;68093.28;;;8.20;100.00
36354;BME280;22383;51.114;13.666;2023-02-18T13:58:18;68093.66;;;8.18;100.00
36354;BME280;22383;51.114;13.666;2023-02-18T14:00:54;68096.13;;;8.22;100.00
36354;BME280;22383;51.114;13.666;2023-02-18T14:04:31;68108.00;;;8.33;100.00
36354;BME280;22383;51.114;13.666;2023-02-18T14:07:24;68114.78;;;8.39;100.00
36354;BME280;22383;51.114;13.666;2023-02-18T14:09:54;68111.19;;;8.33;100.00
36354;BME280;22383;51.114;13.666;2023-02-18T14:22:48;68106.28;;;8.31;100.00
36354;BME280;22383;51.114;13.666;2023-02-18T14:27:52;68109.13;;;8.34;100.00
36354;BME280;22383;51.114;13.666;2023-02-18T14:30:32;68110.81;;;8.36;100.00
36354;BME280;22383;51.114;13.666;2023-02-18T14:33:04;68106.84;;;8.32;100.00
36354;BME280;22383;51.114;13.666;2023-02-18T14:35:54;68104.22;;;8.32;100.00
36354;BME280;22383;51.114;13.666;2023-02-18T14:44:35;68116.47;;;8.41;100.00
36354;BME280;22383;51.114;13.666;2023-02-18T14:47:28;68120.47;;;8.44;100.00
36354;BME280;22383;51.114;13.666;2023-02-18T14:50:04;68117.81;;;8.44;100.00
36354;BME280;22383;51.114;13.666;2023-02-18T14:52:37;68130.09;;;8.53;100.00
36354;BME280;22383;51.114;13.666;2023-02-18T14:55:17;68124.63;;;8.50;100.00
36354;BME280;22383;51.114;13.666;2023-02-18T14:57:57;68123.66;;;8.45;100.00
36354;BME280;22383;51.114;13.666;2023-02-18T15:00:28;68123.09;;;8.44;100.00
36354;BME280;22383;51.114;13.666;2023-02-18T15:03:00;68114.59;;;8.37;100.00
36354;BME280;22383;51.114;13.666;2023-02-18T15:05:30;68099.50;;;8.25;100.00
36354;BME280;22383;51.114;13.666;2023-02-18T15:08:03;68080.84;;;8.08;100.00
36354;BME280;22383;51.114;13.666;2023-02-18T15:10:49;68073.28;;;7.99;100.00
36354;BME280;22383;51.114;13.666;2023-02-18T15:13:37;68068.00;;;7.99;100.00
36354;BME280;22383;51.114;13.666;2023-02-18T15:16:31;68069.91;;;7.96;100.00
36354;BME280;22383;51.114;13.666;2023-02-18T15:19:03;68058.56;;;7.86;100.00